Wilson North — 9HA2312 — position and weather

sailwx.info

Track history (hours):
 
Tides and Currents Weather Stations Pressure Air Temp Water Temp Dewpoint Dewpoint Depression Visibility Wind Speed Wind Dir Waves Ship Positions

Wilson North

Last reported at 2017-Oct-19 08:40 UTC. Time now 2017-Oct-19 09:35 UTC.
Position N 47°18' W 002°07'.

Length 123 m; draft 7.2 m.

Type: Cargo ship. MMSI: 248313000.

Date/timePositionNaut miles runAvg speedWind from/ knotsBaromVisibWave heightAir tempDewpointWater temp
2017-Oct-19 08:40N 47°18' W 002°07'0 0.0
2017-Oct-19 08:19N 47°18' W 002°07'0 0.0
2017-Oct-19 07:52N 47°18' W 002°07'0 0.0
2017-Oct-19 07:16N 47°18' W 002°07'0 0.0
2017-Oct-19 06:55N 47°18' W 002°07'0 0.0
2017-Oct-19 06:28N 47°18' W 002°07'0 0.0
2017-Oct-19 05:58N 47°18' W 002°07'0 0.0
2017-Oct-19 05:25N 47°18' W 002°07'0 0.0
2017-Oct-19 04:58N 47°18' W 002°07'0 0.0
2017-Oct-19 04:28N 47°18' W 002°07'0 0.0
2017-Oct-19 03:55N 47°18' W 002°07'0 0.0
2017-Oct-19 03:25N 47°18' W 002°07'0 0.0
2017-Oct-19 02:49N 47°18' W 002°07'0 0.0
2017-Oct-19 02:28N 47°18' W 002°07'0 0.0
2017-Oct-19 01:58N 47°18' W 002°07'0 0.0
2017-Oct-19 01:25N 47°18' W 002°07'0 0.0
2017-Oct-19 00:46N 47°18' W 002°07'0 0.0
2017-Oct-19 00:28N 47°18' W 002°07'0 0.0
2017-Oct-18 23:58N 47°18' W 002°07'0 0.0
2017-Oct-18 23:28N 47°18' W 002°07'0 0.0
2017-Oct-18 22:55N 47°18' W 002°07'0 0.0
2017-Oct-18 22:25N 47°18' W 002°07'0 0.0
2017-Oct-18 21:58N 47°18' W 002°07'0 0.0
2017-Oct-18 21:28N 47°18' W 002°07'0 0.0
2017-Oct-18 20:58N 47°18' W 002°07'0 0.0
2017-Oct-18 20:25N 47°18' W 002°07'0 0.0
2017-Oct-18 19:55N 47°18' W 002°07'0 0.0
2017-Oct-18 19:28N 47°18' W 002°07'0 0.0
2017-Oct-18 18:58N 47°18' W 002°07'0 0.0
2017-Oct-18 18:25N 47°18' W 002°07'0 0.0
2017-Oct-18 17:58N 47°18' W 002°07'0 0.0
2017-Oct-18 17:28N 47°18' W 002°07'0 0.0
2017-Oct-18 16:58N 47°18' W 002°07'0 0.0
2017-Oct-18 16:28N 47°18' W 002°07'0 0.0
2017-Oct-18 15:58N 47°18' W 002°07'0 0.0
2017-Oct-18 15:28N 47°18' W 002°07'0 0.0
2017-Oct-18 14:55N 47°18' W 002°07'0 0.0
2017-Oct-18 13:49N 47°18' W 002°07'0 0.0
2017-Oct-18 13:22N 47°18' W 002°07'0 0.0
2017-Oct-18 12:58N 47°18' W 002°07'0 0.0
2017-Oct-18 12:19N 47°18' W 002°07'0 0.0
2017-Oct-18 11:58N 47°18' W 002°07'0 0.0
2017-Oct-18 11:22N 47°18' W 002°07'0 0.0
2017-Oct-18 09:46N 47°18' W 002°07'0 0.1
2017-Oct-18 09:29N 47°18' W 002°07'4 9.1
2017-Oct-18 09:00N 47°15' W 002°12'510.8
2017-Oct-18 08:30N 47°11' W 002°18'510.7
2017-Oct-18 08:00N 47°07' W 002°22'4 7.2
2017-Oct-18 07:28N 47°04' W 002°26'3 7.3
2017-Oct-18 07:01N 47°03' W 002°31'4 6.5
2017-Oct-18 06:27N 47°01' W 002°35'3 7.8
2017-Oct-18 06:01N 46°59' W 002°40'4 7.9
2017-Oct-18 05:29N 46°57' W 002°45'4 8.1
2017-Oct-18 04:59N 46°54' W 002°49'4 8.0
2017-Oct-18 04:30N 46°52' W 002°54'4 8.1
2017-Oct-18 04:01N 46°50' W 002°59'510.4
2017-Oct-18 03:30N 46°47' W 003°05'610.6
2017-Oct-18 02:58N 46°44' W 003°12'510.4
2017-Oct-18 02:29N 46°40' W 003°18'510.4
2017-Oct-18 02:00N 46°38' W 003°23'510.2
2017-Oct-18 01:31N 46°35' W 003°29'510.3
2017-Oct-18 01:01N 46°32' W 003°35'510.8
2017-Oct-18 00:30N 46°28' W 003°42'610.5
2017-Oct-17 23:56N 46°25' W 003°49'510.4
2017-Oct-17 23:30N 46°22' W 003°54'510.4
2017-Oct-17 23:00N 46°19' W 004°00'49810.2
2017-Oct-15 22:25N 39°13' W 009°50'511.9
2017-Oct-15 22:01N 39°08' W 009°50'611.5
2017-Oct-15 21:31N 39°02' W 009°51'611.8
2017-Oct-15 21:01N 38°56' W 009°51'611.8
2017-Oct-15 20:30N 38°50' W 009°51'612.3
2017-Oct-15 20:00N 38°44' W 009°51'612.1
2017-Oct-15 19:30N 38°38' W 009°50'611.9
2017-Oct-15 19:01N 38°33' W 009°47'612.3
2017-Oct-15 18:30N 38°27' W 009°46'612.3
2017-Oct-15 18:00N 38°21' W 009°44'612.4
2017-Oct-15 17:31N 38°15' W 009°42'612.1
2017-Oct-15 17:01N 38°09' W 009°40'612.1
2017-Oct-15 16:31N 38°03' W 009°38'612.1
2017-Oct-15 16:00N 37°57' W 009°37'612.1
2017-Oct-15 15:31N 37°51' W 009°35'612.1
2017-Oct-15 15:00N 37°45' W 009°33'1212.2
2017-Oct-15 14:00N 37°33' W 009°30'612.2
2017-Oct-15 13:31N 37°27' W 009°28'612.2
2017-Oct-15 13:00N 37°21' W 009°26'612.1
2017-Oct-15 12:29N 37°15' W 009°25'811.9
2017-Oct-15 11:50N 37°08' W 009°23'612.1
2017-Oct-15 11:21N 37°02' W 009°21'411.9
2017-Oct-15 11:00N 36°58' W 009°20'611.2
2017-Oct-15 10:30N 36°53' W 009°18'612.0
2017-Oct-15 10:00N 36°48' W 009°13'611.9
2017-Oct-15 09:31N 36°45' W 009°07'612.1
2017-Oct-15 09:00N 36°43' W 008°59'611.9
2017-Oct-15 08:30N 36°41' W 008°53'612.1
2017-Oct-15 08:01N 36°38' W 008°46'612.8
2017-Oct-15 07:30N 36°36' W 008°38'611.7
2017-Oct-15 07:01N 36°34' W 008°31'611.6
2017-Oct-15 06:30N 36°32' W 008°24'611.4
2017-Oct-15 06:00N 36°31' W 008°17'611.2
2017-Oct-15 05:30N 36°29' W 008°11'611.4
2017-Oct-15 05:01N 36°28' W 008°04'611.5
2017-Oct-15 04:30N 36°26' W 007°57'611.2
2017-Oct-15 04:01N 36°24' W 007°51'611.1
2017-Oct-15 03:31N 36°22' W 007°44'611.3
2017-Oct-15 03:01N 36°20' W 007°38'611.8
2017-Oct-15 02:31N 36°18' W 007°31'611.6
2017-Oct-15 02:00N 36°16' W 007°24'611.4
2017-Oct-15 01:31N 36°15' W 007°17'611.1
2017-Oct-15 01:00N 36°13' W 007°10'611.2
2017-Oct-15 00:30N 36°12' W 007°04'611.1
2017-Oct-15 00:00N 36°10' W 006°57'810.7
2017-Oct-14 23:14N 36°08' W 006°47'510.9
2017-Oct-14 22:47N 36°06' W 006°42'711.2
2017-Oct-14 22:09N 36°04' W 006°33'411.1
2017-Oct-14 21:50N 36°03' W 006°29'1511.7
2017-Oct-14 20:32N 35°58' W 006°11'012.8
2017-Oct-14 20:31N 35°58' W 006°11'713.1
2017-Oct-14 19:58N 35°58' W 006°02'2113.2
2017-Oct-14 18:23N 35°58' W 005°36'411.5
2017-Oct-14 18:00N 35°59' W 005°31'510.2
2017-Oct-14 17:30N 36°01' W 005°25'5 9.8
2017-Oct-14 17:00N 36°02' W 005°19'510.5
2017-Oct-14 16:30N 36°04' W 005°13'21511.1
2017-Oct-13 21:10N 36°44' W 000°51'212.1
2017-Oct-13 20:59N 36°44' W 000°48'612.0
2017-Oct-13 20:30N 36°46' W 000°41'612.0
2017-Oct-13 20:00N 36°47' W 000°34'612.0
2017-Oct-13 19:30N 36°49' W 000°26'612.1
2017-Oct-13 18:58N 36°51' W 000°19'712.1
2017-Oct-13 18:25N 36°53' W 000°11'512.2
2017-Oct-13 18:00N 36°54' W 000°05'612.3
2017-Oct-13 17:30N 36°55' E 000°03'612.4
2017-Oct-13 17:00N 36°57' E 000°10'612.5
2017-Oct-13 16:30N 36°59' E 000°18'612.5
2017-Oct-13 16:00N 37°01' E 000°25'612.3
2017-Oct-13 15:30N 37°02' E 000°33'612.4
2017-Oct-13 15:00N 37°04' E 000°40'612.4
2017-Oct-13 14:30N 37°06' E 000°48'812.3
2017-Oct-13 13:52N 37°08' E 000°57'512.3
2017-Oct-13 13:30N 37°09' E 001°03'612.3
2017-Oct-13 13:00N 37°10' E 001°10'612.3
2017-Oct-13 12:30N 37°12' E 001°17'612.3
2017-Oct-13 12:00N 37°14' E 001°25'912.3
2017-Oct-13 11:17N 37°16' E 001°35'1012.2
2017-Oct-13 10:27N 37°19' E 001°48'712.1
2017-Oct-13 09:54N 37°21' E 001°56'9512.0
2017-Oct-13 01:56N 37°33' E 003°55'  
Track history (hours):
 
Tides and Currents Weather Stations Pressure Air Temp Water Temp Dewpoint Dewpoint Depression Visibility Wind Speed Wind Dir Waves Ship Positions

Wilson North

Last reported at 2017-Oct-19 08:40 UTC. Time now 2017-Oct-19 09:35 UTC.
Position N 47°18' W 002°07'.

Length 123 m; draft 7.2 m.

Type: Cargo ship. MMSI: 248313000.

Date/timePositionNaut miles runAvg speedWind from/ knotsBaromVisibWave heightAir tempDewpointWater temp
2017-Oct-19 08:40N 47°18' W 002°07'0 0.0
2017-Oct-19 08:19N 47°18' W 002°07'0 0.0
2017-Oct-19 07:52N 47°18' W 002°07'0 0.0
2017-Oct-19 07:16N 47°18' W 002°07'0 0.0
2017-Oct-19 06:55N 47°18' W 002°07'0 0.0
2017-Oct-19 06:28N 47°18' W 002°07'0 0.0
2017-Oct-19 05:58N 47°18' W 002°07'0 0.0
2017-Oct-19 05:25N 47°18' W 002°07'0 0.0
2017-Oct-19 04:58N 47°18' W 002°07'0 0.0
2017-Oct-19 04:28N 47°18' W 002°07'0 0.0
2017-Oct-19 03:55N 47°18' W 002°07'0 0.0
2017-Oct-19 03:25N 47°18' W 002°07'0 0.0
2017-Oct-19 02:49N 47°18' W 002°07'0 0.0
2017-Oct-19 02:28N 47°18' W 002°07'0 0.0
2017-Oct-19 01:58N 47°18' W 002°07'0 0.0
2017-Oct-19 01:25N 47°18' W 002°07'0 0.0
2017-Oct-19 00:46N 47°18' W 002°07'0 0.0
2017-Oct-19 00:28N 47°18' W 002°07'0 0.0
2017-Oct-18 23:58N 47°18' W 002°07'0 0.0
2017-Oct-18 23:28N 47°18' W 002°07'0 0.0
2017-Oct-18 22:55N 47°18' W 002°07'0 0.0
2017-Oct-18 22:25N 47°18' W 002°07'0 0.0
2017-Oct-18 21:58N 47°18' W 002°07'0 0.0
2017-Oct-18 21:28N 47°18' W 002°07'0 0.0
2017-Oct-18 20:58N 47°18' W 002°07'0 0.0
2017-Oct-18 20:25N 47°18' W 002°07'0 0.0
2017-Oct-18 19:55N 47°18' W 002°07'0 0.0
2017-Oct-18 19:28N 47°18' W 002°07'0 0.0
2017-Oct-18 18:58N 47°18' W 002°07'0 0.0
2017-Oct-18 18:25N 47°18' W 002°07'0 0.0
2017-Oct-18 17:58N 47°18' W 002°07'0 0.0
2017-Oct-18 17:28N 47°18' W 002°07'0 0.0
2017-Oct-18 16:58N 47°18' W 002°07'0 0.0
2017-Oct-18 16:28N 47°18' W 002°07'0 0.0
2017-Oct-18 15:58N 47°18' W 002°07'0 0.0
2017-Oct-18 15:28N 47°18' W 002°07'0 0.0
2017-Oct-18 14:55N 47°18' W 002°07'0 0.0
2017-Oct-18 13:49N 47°18' W 002°07'0 0.0
2017-Oct-18 13:22N 47°18' W 002°07'0 0.0
2017-Oct-18 12:58N 47°18' W 002°07'0 0.0
2017-Oct-18 12:19N 47°18' W 002°07'0 0.0
2017-Oct-18 11:58N 47°18' W 002°07'0 0.0
2017-Oct-18 11:22N 47°18' W 002°07'0 0.0
2017-Oct-18 09:46N 47°18' W 002°07'0 0.1
2017-Oct-18 09:29N 47°18' W 002°07'4 9.1
2017-Oct-18 09:00N 47°15' W 002°12'510.8
2017-Oct-18 08:30N 47°11' W 002°18'510.7
2017-Oct-18 08:00N 47°07' W 002°22'4 7.2
2017-Oct-18 07:28N 47°04' W 002°26'3 7.3
2017-Oct-18 07:01N 47°03' W 002°31'4 6.5
2017-Oct-18 06:27N 47°01' W 002°35'3 7.8
2017-Oct-18 06:01N 46°59' W 002°40'4 7.9
2017-Oct-18 05:29N 46°57' W 002°45'4 8.1
2017-Oct-18 04:59N 46°54' W 002°49'4 8.0
2017-Oct-18 04:30N 46°52' W 002°54'4 8.1
2017-Oct-18 04:01N 46°50' W 002°59'510.4
2017-Oct-18 03:30N 46°47' W 003°05'610.6
2017-Oct-18 02:58N 46°44' W 003°12'510.4
2017-Oct-18 02:29N 46°40' W 003°18'510.4
2017-Oct-18 02:00N 46°38' W 003°23'510.2
2017-Oct-18 01:31N 46°35' W 003°29'510.3
2017-Oct-18 01:01N 46°32' W 003°35'510.8
2017-Oct-18 00:30N 46°28' W 003°42'610.5
2017-Oct-17 23:56N 46°25' W 003°49'510.4
2017-Oct-17 23:30N 46°22' W 003°54'510.4
2017-Oct-17 23:00N 46°19' W 004°00'49810.2
2017-Oct-15 22:25N 39°13' W 009°50'511.9
2017-Oct-15 22:01N 39°08' W 009°50'611.5
2017-Oct-15 21:31N 39°02' W 009°51'611.8
2017-Oct-15 21:01N 38°56' W 009°51'611.8
2017-Oct-15 20:30N 38°50' W 009°51'612.3
2017-Oct-15 20:00N 38°44' W 009°51'612.1
2017-Oct-15 19:30N 38°38' W 009°50'611.9
2017-Oct-15 19:01N 38°33' W 009°47'612.3
2017-Oct-15 18:30N 38°27' W 009°46'612.3
2017-Oct-15 18:00N 38°21' W 009°44'612.4
2017-Oct-15 17:31N 38°15' W 009°42'612.1
2017-Oct-15 17:01N 38°09' W 009°40'612.1
2017-Oct-15 16:31N 38°03' W 009°38'612.1
2017-Oct-15 16:00N 37°57' W 009°37'612.1
2017-Oct-15 15:31N 37°51' W 009°35'612.1
2017-Oct-15 15:00N 37°45' W 009°33'1212.2
2017-Oct-15 14:00N 37°33' W 009°30'612.2
2017-Oct-15 13:31N 37°27' W 009°28'612.2
2017-Oct-15 13:00N 37°21' W 009°26'612.1
2017-Oct-15 12:29N 37°15' W 009°25'811.9
2017-Oct-15 11:50N 37°08' W 009°23'612.1
2017-Oct-15 11:21N 37°02' W 009°21'411.9
2017-Oct-15 11:00N 36°58' W 009°20'611.2
2017-Oct-15 10:30N 36°53' W 009°18'612.0
2017-Oct-15 10:00N 36°48' W 009°13'611.9
2017-Oct-15 09:31N 36°45' W 009°07'612.1
2017-Oct-15 09:00N 36°43' W 008°59'611.9
2017-Oct-15 08:30N 36°41' W 008°53'612.1
2017-Oct-15 08:01N 36°38' W 008°46'612.8
2017-Oct-15 07:30N 36°36' W 008°38'611.7
2017-Oct-15 07:01N 36°34' W 008°31'611.6
2017-Oct-15 06:30N 36°32' W 008°24'611.4
2017-Oct-15 06:00N 36°31' W 008°17'611.2
2017-Oct-15 05:30N 36°29' W 008°11'611.4
2017-Oct-15 05:01N 36°28' W 008°04'611.5
2017-Oct-15 04:30N 36°26' W 007°57'611.2
2017-Oct-15 04:01N 36°24' W 007°51'611.1
2017-Oct-15 03:31N 36°22' W 007°44'611.3
2017-Oct-15 03:01N 36°20' W 007°38'611.8
2017-Oct-15 02:31N 36°18' W 007°31'611.6
2017-Oct-15 02:00N 36°16' W 007°24'611.4
2017-Oct-15 01:31N 36°15' W 007°17'611.1
2017-Oct-15 01:00N 36°13' W 007°10'611.2
2017-Oct-15 00:30N 36°12' W 007°04'611.1
2017-Oct-15 00:00N 36°10' W 006°57'810.7
2017-Oct-14 23:14N 36°08' W 006°47'510.9
2017-Oct-14 22:47N 36°06' W 006°42'711.2
2017-Oct-14 22:09N 36°04' W 006°33'411.1
2017-Oct-14 21:50N 36°03' W 006°29'1511.7
2017-Oct-14 20:32N 35°58' W 006°11'012.8
2017-Oct-14 20:31N 35°58' W 006°11'713.1
2017-Oct-14 19:58N 35°58' W 006°02'2113.2
2017-Oct-14 18:23N 35°58' W 005°36'411.5
2017-Oct-14 18:00N 35°59' W 005°31'510.2
2017-Oct-14 17:30N 36°01' W 005°25'5 9.8
2017-Oct-14 17:00N 36°02' W 005°19'510.5
2017-Oct-14 16:30N 36°04' W 005°13'21511.1
2017-Oct-13 21:10N 36°44' W 000°51'212.1
2017-Oct-13 20:59N 36°44' W 000°48'612.0
2017-Oct-13 20:30N 36°46' W 000°41'612.0
2017-Oct-13 20:00N 36°47' W 000°34'612.0
2017-Oct-13 19:30N 36°49' W 000°26'612.1
2017-Oct-13 18:58N 36°51' W 000°19'712.1
2017-Oct-13 18:25N 36°53' W 000°11'512.2
2017-Oct-13 18:00N 36°54' W 000°05'612.3
2017-Oct-13 17:30N 36°55' E 000°03'612.4
2017-Oct-13 17:00N 36°57' E 000°10'612.5
2017-Oct-13 16:30N 36°59' E 000°18'612.5
2017-Oct-13 16:00N 37°01' E 000°25'612.3
2017-Oct-13 15:30N 37°02' E 000°33'612.4
2017-Oct-13 15:00N 37°04' E 000°40'612.4
2017-Oct-13 14:30N 37°06' E 000°48'812.3
2017-Oct-13 13:52N 37°08' E 000°57'512.3
2017-Oct-13 13:30N 37°09' E 001°03'612.3
2017-Oct-13 13:00N 37°10' E 001°10'612.3
2017-Oct-13 12:30N 37°12' E 001°17'612.3
2017-Oct-13 12:00N 37°14' E 001°25'912.3
2017-Oct-13 11:17N 37°16' E 001°35'1012.2
2017-Oct-13 10:27N 37°19' E 001°48'712.1
2017-Oct-13 09:54N 37°21' E 001°56'9512.0
2017-Oct-13 01:56N 37°33' E 003°55'  

Dump ship's entire track history